Accueil
METAR-TAF:

METAR-TAF

Aéroports :

Ubon Ratchathani, Thaïlande

latitude: 15-15N, longitude: 104-52E, altitude: 123 m

Observation

Le bulletin a été fait il y a 38 minutes, à 10:30 UTC
Vent 5 kt de sud, variant entre est/sud-est et sud-ouest
Température 31°C
Humidité 71%
Pression 1006 hPa
Visibilité 10 km ou plus
Quelques nuages à une hauteur de 4000 ft
Nuages épars à une hauteur de 10000 ft

METAR: VTUU 031030Z 18005KT 120V230 9999 FEW040 SCT100 31/25 Q1006 NOSIG

Heure: 18:08 (11:08 UTC)

Prévision

Le bulletin a été fait il y a 6 heures et 8 minutes, à 05:00 UTC
Prévision valable du 03 à 06 UTC au 04 à 06 UTC
Vent 5 kt de sud/sud-ouest
Visibilité 10 km ou plus
Nuages épars à une hauteur de 3000 ft

TAF: VTUU 030500Z 0306/0406 20005KT 9999 SCT030

Observations et prévisions météorologiques de plus de 4000 aéroports (messages METAR et TAF).

Les stations disponibles sont représentées par des disques jaunes et rouges sur la carte.

Passer la souris dessus pour voir le nom de la station.

Cliquer dessus pour voir les observations et prévisions météorologiques.

Pour changer de carte: cliquez sur les boutons verts avec une croix noire pour zoomer, sur le bouton vert avec un tiret pour effectuer un zoom arrière, ou sur les flèches vertes pour les cartes adjacentes.


METAR-TAF: